Pagina principale
METAR-TAF:

METAR-TAF

Aeroporti :

Aeroporto di Port Moresby

Port Moresby, Papua Nuova Guinea

latitudine: 09-26S, longitudine: 147-13E, altezza: 38 m

Osservazione

Il bollettino è stato emesso 43 minuti fa, alle 10:00 UTC
Vento 20 kt da sud-est
Temperature 26°C
Umidità 84%
Pressione 1011 hPa
Visibilità 10 km o più
Poco nuvoloso ad un'altezza di 5000 ft

METAR: AYPY 071000Z 14020KT 9999 FEW050 26/23 Q1011

Ora: 20:43 (10:43 UTC)

Previsione

Il bollettino è stato emesso 6 ore e 42 minuti fa, alle 04:01 UTC
Previsione valida dal 07 alle 06 UTC al 08 alle 06 UTC
Vento 15 kt da sud/sud-est con raffiche fino a 26 kt
Visibilità 10 km o più
Poco nuvoloso ad un'altezza di 2000 ft
Nubi sparse ad un'altezza di 4000 ft
A partire da 07 alle 0900 UTC
Vento 15 kt da sud/sud-est con raffiche fino a 26 kt
Visibilità 10 km o più
Nuvoloso ad un'altezza di 3500 ft

TAF: AYPY 070401Z 0706/0806 16015G26KT 9999 FEW020 SCT040 FM070900 16015G26KT 9999 BKN035

Osservazioni e previsioni meteorologiche di più di 4000 aeroporti (messaggi METAR e TAF).

Le stazioni disponibili sono rappresentate dai dischi gialli e rossi sulla carta.

Puntare il mouse per vedere il nome della stazione.

Clicca sopra per visualizzare le osservazioni e previsioni meteorologiche.

Per cambiare la mappa : fare clic sui pulsanti verdi con una croce nera per ingrandire, il pulsante verde con un trattino per diminuire, o sulla freccia verde per le mappe adiacenti.


METAR-TAF: